createdAt,value
2022-11-28T00:01:30.028Z,57.66
2022-11-28T00:04:00.428Z,57.59
2022-11-28T00:06:29.109Z,57.42
2022-11-28T00:09:00.317Z,57.40
2022-11-28T00:11:31.171Z,57.20
2022-11-28T00:13:59.976Z,57.47
2022-11-28T00:16:28.542Z,57.19
2022-11-28T00:19:01.846Z,57.17
2022-11-28T00:21:32.031Z,57.33
2022-11-28T00:24:00.801Z,57.39
2022-11-28T00:26:33.748Z,57.50
2022-11-28T00:29:03.432Z,57.45
2022-11-28T00:31:33.423Z,57.37
2022-11-28T00:34:03.450Z,57.13
2022-11-28T00:36:31.856Z,57.30
2022-11-28T00:39:02.787Z,57.39
2022-11-28T00:41:35.300Z,57.55
2022-11-28T00:44:04.880Z,57.38
2022-11-28T00:46:34.566Z,57.42
2022-11-28T00:49:03.665Z,57.36
2022-11-28T00:51:35.325Z,57.46
2022-11-28T00:54:06.403Z,57.42
2022-11-28T00:56:37.964Z,57.33
2022-11-28T00:59:07.193Z,57.31
2022-11-28T01:01:37.934Z,57.45
2022-11-28T01:04:08.744Z,57.56
2022-11-28T01:06:38.991Z,57.44
2022-11-28T01:09:09.808Z,57.58
2022-11-28T01:11:39.680Z,57.50
2022-11-28T01:14:09.772Z,57.44
2022-11-28T01:16:40.078Z,57.34
2022-11-28T01:19:11.050Z,57.30
2022-11-28T01:21:39.504Z,57.38
2022-11-28T01:24:09.535Z,57.46
2022-11-28T01:26:39.831Z,57.36
2022-11-28T01:29:10.184Z,57.35
2022-11-28T01:31:38.822Z,57.38
2022-11-28T01:34:07.808Z,57.40
2022-11-28T01:36:38.719Z,57.38
2022-11-28T01:39:08.131Z,57.37
2022-11-28T01:41:37.816Z,57.33
2022-11-28T01:44:28.963Z,57.40
2022-11-28T01:46:57.797Z,57.56
2022-11-28T01:49:31.439Z,57.51
2022-11-28T01:52:07.414Z,57.51
2022-11-28T01:54:36.839Z,57.37
2022-11-28T01:57:11.024Z,57.32
2022-11-28T01:59:42.405Z,57.40
2022-11-28T02:02:20.730Z,57.24
2022-11-28T02:04:52.081Z,57.44
2022-11-28T02:07:21.733Z,57.39
2022-11-28T02:09:51.571Z,57.34
2022-11-28T02:12:30.406Z,57.51
2022-11-28T02:15:13.957Z,57.38
2022-11-28T02:17:50.410Z,57.23
2022-11-28T02:20:47.631Z,57.11
2022-11-28T02:23:20.135Z,57.22
2022-11-28T02:26:05.685Z,57.08
2022-11-28T02:29:03.720Z,57.03
2022-11-28T02:31:58.091Z,56.83
2022-11-28T02:34:30.155Z,57.15
2022-11-28T02:37:03.644Z,57.17
2022-11-28T02:39:38.357Z,56.85
2022-11-28T02:42:11.836Z,56.86
2022-11-28T02:44:44.759Z,57.12
2022-11-28T02:47:20.375Z,57.10
2022-11-28T02:49:55.116Z,56.99
2022-11-28T02:52:27.887Z,56.87
2022-11-28T02:54:58.291Z,56.86
2022-11-28T02:57:36.324Z,56.53
2022-11-28T03:00:27.826Z,56.43
2022-11-28T03:03:18.275Z,56.33
2022-11-28T03:05:54.703Z,56.43
2022-11-28T03:08:37.047Z,56.45
2022-11-28T03:11:14.937Z,56.57
2022-11-28T03:13:50.634Z,56.76
2022-11-28T03:16:26.907Z,56.77
2022-11-28T03:19:01.387Z,56.67
2022-11-28T03:21:40.973Z,56.60
2022-11-28T03:24:15.407Z,56.68
2022-11-28T03:26:50.566Z,56.67
2022-11-28T03:29:23.247Z,56.40
2022-11-28T03:31:54.717Z,56.56
2022-11-28T03:34:28.042Z,56.36
2022-11-28T03:37:00.180Z,56.06
2022-11-28T03:39:32.095Z,56.11
2022-11-28T03:42:05.263Z,55.93
2022-11-28T03:44:40.333Z,55.99
2022-11-28T03:47:09.391Z,56.11
2022-11-28T03:49:40.698Z,55.99
2022-11-28T03:52:14.499Z,55.93
2022-11-28T03:54:48.635Z,55.68
2022-11-28T03:57:24.243Z,55.54
2022-11-28T03:59:53.904Z,55.82
2022-11-28T04:02:25.866Z,55.92
2022-11-28T04:05:02.253Z,55.96
2022-11-28T04:07:34.334Z,55.83
2022-11-28T04:10:08.486Z,55.61
2022-11-28T04:12:48.685Z,55.47
2022-11-28T04:15:20.921Z,55.63
2022-11-28T04:17:54.121Z,55.75
2022-11-28T04:20:28.660Z,55.81
2022-11-28T04:23:02.468Z,55.85
2022-11-28T04:25:34.902Z,55.77
2022-11-28T04:28:06.353Z,55.47
2022-11-28T04:30:35.229Z,55.52
2022-11-28T04:33:09.052Z,55.50
2022-11-28T04:35:39.990Z,55.50
2022-11-28T04:38:12.149Z,55.53
2022-11-28T04:40:44.229Z,55.54
2022-11-28T04:43:18.197Z,55.30
2022-11-28T04:45:51.389Z,55.39
2022-11-28T04:48:20.372Z,55.20
2022-11-28T04:50:52.544Z,55.37
2022-11-28T04:53:27.399Z,55.47
2022-11-28T04:56:03.756Z,55.42
2022-11-28T04:58:35.433Z,55.39
2022-11-28T05:01:08.049Z,55.52
2022-11-28T05:03:42.292Z,55.17
2022-11-28T05:06:11.318Z,54.95
2022-11-28T05:08:39.878Z,55.10
2022-11-28T05:11:10.744Z,55.21
2022-11-28T05:13:39.362Z,55.39
2022-11-28T05:16:08.767Z,55.26
2022-11-28T05:18:37.313Z,55.16
2022-11-28T05:21:08.385Z,55.16
2022-11-28T05:23:37.657Z,55.05
2022-11-28T05:26:08.238Z,54.95
2022-11-28T05:28:37.007Z,55.10
2022-11-28T05:31:06.670Z,54.94
2022-11-28T05:33:35.300Z,54.98
2022-11-28T05:36:12.589Z,55.01
2022-11-28T05:38:42.556Z,55.22
2022-11-28T05:41:18.068Z,55.07
2022-11-28T05:43:46.832Z,55.01
2022-11-28T05:46:16.199Z,54.74
2022-11-28T05:48:45.052Z,54.78
2022-11-28T05:51:13.704Z,54.85
2022-11-28T05:53:42.413Z,54.79
2022-11-28T05:56:13.272Z,55.11
2022-11-28T05:58:42.848Z,54.98
2022-11-28T06:01:13.267Z,54.92
2022-11-28T06:03:42.434Z,54.93
2022-11-28T06:06:13.747Z,54.96
2022-11-28T06:08:43.007Z,55.09
2022-11-28T06:11:14.068Z,55.02
2022-11-28T06:13:44.355Z,55.08
2022-11-28T06:16:14.920Z,55.10
2022-11-28T06:18:43.693Z,55.20
2022-11-28T06:21:13.268Z,55.22
2022-11-28T06:23:42.295Z,55.11
2022-11-28T06:26:14.554Z,54.77
2022-11-28T06:28:44.309Z,54.87
2022-11-28T06:31:14.165Z,54.87
2022-11-28T06:33:43.671Z,55.00
2022-11-28T06:36:13.687Z,54.96
2022-11-28T06:38:42.501Z,55.05
2022-11-28T06:41:13.101Z,54.83
2022-11-28T06:43:41.924Z,54.74
2022-11-28T06:46:15.909Z,54.75
2022-11-28T06:48:46.307Z,54.73
2022-11-28T06:51:15.112Z,54.82
2022-11-28T06:53:44.157Z,54.71
2022-11-28T06:56:14.649Z,55.12
2022-11-28T06:58:44.834Z,55.15
2022-11-28T07:01:15.336Z,55.08
2022-11-28T07:03:44.191Z,55.11
2022-11-28T07:06:13.728Z,55.11
2022-11-28T07:08:43.064Z,55.17
2022-11-28T07:11:14.137Z,55.10
2022-11-28T07:13:45.115Z,54.76
2022-11-28T07:16:15.957Z,54.90
2022-11-28T07:18:45.143Z,54.83
2022-11-28T07:21:14.365Z,54.77
2022-11-28T07:23:43.747Z,54.89
2022-11-28T07:26:14.463Z,54.84
2022-11-28T07:28:44.399Z,54.92
2022-11-28T07:31:14.909Z,54.97
2022-11-28T07:33:46.038Z,54.95
2022-11-28T07:36:16.433Z,55.01
2022-11-28T07:38:47.434Z,55.05
2022-11-28T07:41:16.756Z,54.88
2022-11-28T07:43:46.580Z,55.28
2022-11-28T07:46:17.571Z,55.03
2022-11-28T07:48:47.241Z,55.02
2022-11-28T07:51:17.352Z,55.12
2022-11-28T07:53:46.615Z,54.98
2022-11-28T07:56:18.048Z,54.69
2022-11-28T07:58:47.743Z,54.79
2022-11-28T08:01:18.750Z,54.90
2022-11-28T08:03:47.604Z,54.88
2022-11-28T08:06:17.560Z,54.90
2022-11-28T08:08:47.091Z,54.94
2022-11-28T08:11:17.323Z,54.96
2022-11-28T08:13:46.310Z,54.66
2022-11-28T08:16:16.937Z,54.70
2022-11-28T08:18:46.347Z,55.01
2022-11-28T08:21:17.386Z,55.10
2022-11-28T08:23:46.232Z,54.63
2022-11-28T08:26:16.476Z,54.64
2022-11-28T08:28:45.400Z,54.67
2022-11-28T08:31:16.341Z,54.81
2022-11-28T08:33:46.535Z,54.78
2022-11-28T08:36:16.201Z,54.70
2022-11-28T08:39:02.922Z,54.85
2022-11-28T08:41:34.660Z,54.86
2022-11-28T08:44:04.745Z,55.08
2022-11-28T08:46:33.682Z,54.96
2022-11-28T08:49:04.587Z,54.76
2022-11-28T08:51:34.367Z,54.89
2022-11-28T08:54:02.956Z,54.72
2022-11-28T08:56:32.026Z,54.86
2022-11-28T08:59:02.010Z,54.54
2022-11-28T09:01:30.733Z,54.65
2022-11-28T09:03:59.346Z,54.42
2022-11-28T09:06:28.015Z,54.41
2022-11-28T09:08:56.564Z,54.40
2022-11-28T09:11:25.180Z,54.24
2022-11-28T09:13:53.741Z,54.37
2022-11-28T09:16:24.637Z,54.41
2022-11-28T09:18:53.747Z,54.43
2022-11-28T09:21:22.239Z,54.03
2022-11-28T09:23:51.048Z,54.18
2022-11-28T09:26:21.151Z,54.19
2022-11-28T09:28:49.823Z,54.47
2022-11-28T09:31:19.097Z,54.37
2022-11-28T09:33:49.453Z,54.43
2022-11-28T09:36:21.091Z,54.19
2022-11-28T09:38:52.456Z,54.35
2022-11-28T09:41:42.451Z,54.16
2022-11-28T09:44:18.412Z,53.98
2022-11-28T09:46:50.480Z,54.16
2022-11-28T09:49:39.906Z,54.18
2022-11-28T09:52:23.834Z,54.09
2022-11-28T09:54:58.928Z,54.15
2022-11-28T09:57:36.048Z,54.06
2022-11-28T10:00:11.344Z,53.89
2022-11-28T10:02:46.454Z,53.76
2022-11-28T10:05:20.658Z,53.62
2022-11-28T10:08:01.006Z,53.59
2022-11-28T10:10:36.437Z,53.64
2022-11-28T10:13:12.223Z,53.60
2022-11-28T10:15:47.454Z,53.45
2022-11-28T10:18:38.003Z,53.44
2022-11-28T10:21:22.445Z,53.47
2022-11-28T10:23:54.445Z,53.37
2022-11-28T10:26:32.431Z,53.41
2022-11-28T10:29:05.460Z,53.39
2022-11-28T10:31:39.172Z,53.19
2022-11-28T10:42:10.536Z,52.63
2022-11-28T10:44:54.469Z,52.71
2022-11-28T10:47:40.061Z,52.90
2022-11-28T10:50:20.946Z,52.82
2022-11-28T10:52:59.155Z,52.76
2022-11-28T10:55:39.419Z,52.63
2022-11-28T10:58:17.862Z,52.74
2022-11-28T11:00:54.220Z,52.45
2022-11-28T11:03:31.938Z,52.57
2022-11-28T11:06:05.890Z,52.64
2022-11-28T11:08:40.909Z,52.45
2022-11-28T11:11:24.450Z,52.19
2022-11-28T11:14:07.050Z,52.21
2022-11-28T11:16:56.836Z,52.46
2022-11-28T11:19:32.029Z,52.60
2022-11-28T11:22:16.625Z,52.35
2022-11-28T11:25:11.710Z,52.21
2022-11-28T11:27:50.723Z,51.94
2022-11-28T11:30:29.178Z,52.21
2022-11-28T11:33:08.119Z,51.79
2022-11-28T11:35:45.766Z,51.58
2022-11-28T11:38:36.317Z,51.87
2022-11-28T11:41:30.751Z,52.23
2022-11-28T11:44:29.620Z,52.02
2022-11-28T11:47:05.274Z,51.80
2022-11-28T11:49:40.604Z,51.73
2022-11-28T11:52:22.988Z,51.89
2022-11-28T11:55:08.149Z,51.69
2022-11-28T11:57:44.640Z,51.88
2022-11-28T12:00:35.648Z,51.97
2022-11-28T12:03:14.224Z,52.01
2022-11-28T12:06:13.092Z,51.52
2022-11-28T12:08:51.586Z,51.34
2022-11-28T12:11:29.411Z,50.93
2022-11-28T12:14:13.867Z,51.15
2022-11-28T12:16:52.521Z,51.26
2022-11-28T12:19:33.126Z,51.24
2022-11-28T12:22:16.548Z,51.38
2022-11-28T12:24:56.316Z,51.34
2022-11-28T12:27:40.086Z,51.04
2022-11-28T12:30:34.503Z,50.65
2022-11-28T12:33:20.287Z,50.76
2022-11-28T12:36:03.317Z,50.92
2022-11-28T12:38:55.618Z,50.88
2022-11-28T12:41:42.005Z,50.71
2022-11-28T12:44:23.276Z,50.61
2022-11-28T12:47:01.999Z,50.55
2022-11-28T12:49:40.935Z,50.58
2022-11-28T12:52:22.278Z,50.58
2022-11-28T12:55:03.341Z,50.30
2022-11-28T12:57:41.551Z,50.44
2022-11-28T13:00:20.127Z,50.75
2022-11-28T13:03:07.342Z,50.76
2022-11-28T13:05:48.297Z,50.42
2022-11-28T13:08:34.946Z,50.51
2022-11-28T13:11:19.800Z,50.44
2022-11-28T13:13:56.886Z,50.66
2022-11-28T13:16:34.487Z,50.39
2022-11-28T13:19:19.915Z,50.57
2022-11-28T13:21:57.286Z,50.59
2022-11-28T13:24:35.383Z,50.47
2022-11-28T13:27:22.181Z,50.39
2022-11-28T13:30:19.764Z,50.36
2022-11-28T13:32:56.529Z,50.40
2022-11-28T13:35:32.955Z,50.38
2022-11-28T13:41:18.060Z,50.51
2022-11-28T13:44:05.845Z,50.53
2022-11-28T13:46:38.454Z,50.58
2022-11-28T13:49:22.910Z,50.75
2022-11-28T13:52:41.221Z,50.53
2022-11-28T13:55:41.376Z,50.69
2022-11-28T13:58:25.614Z,50.88
2022-11-28T14:01:06.868Z,50.79
2022-11-28T14:03:49.291Z,50.86
2022-11-28T14:06:23.700Z,50.26
2022-11-28T14:09:07.357Z,50.18
2022-11-28T14:12:08.416Z,50.13
2022-11-28T14:14:56.064Z,50.21
2022-11-28T14:17:46.016Z,50.33
2022-11-28T14:20:28.851Z,50.52
2022-11-28T14:23:15.324Z,50.39
2022-11-28T14:25:48.974Z,50.49
2022-11-28T14:28:26.459Z,50.70
2022-11-28T14:31:08.839Z,50.78
2022-11-28T14:33:43.911Z,50.62
2022-11-28T14:36:37.305Z,50.58
2022-11-28T14:39:35.101Z,50.70
2022-11-28T14:42:59.488Z,50.74
2022-11-28T14:45:52.874Z,50.57
2022-11-28T14:48:33.078Z,50.71
2022-11-28T14:51:05.646Z,50.51
2022-11-28T14:53:46.506Z,50.76
2022-11-28T14:56:30.913Z,50.84
2022-11-28T14:59:04.622Z,50.63
2022-11-28T15:01:55.715Z,50.73
2022-11-28T15:04:55.121Z,50.86
2022-11-28T15:07:33.366Z,50.88
2022-11-28T15:10:13.104Z,51.11
2022-11-28T15:12:56.583Z,51.19
2022-11-28T15:15:29.918Z,51.18
2022-11-28T15:18:07.102Z,51.20
2022-11-28T15:20:44.066Z,51.35
2022-11-28T15:23:26.632Z,51.38
2022-11-28T15:26:04.306Z,51.35
2022-11-28T15:28:39.159Z,51.53
2022-11-28T15:31:25.076Z,51.65
2022-11-28T15:33:57.825Z,51.80
2022-11-28T15:36:31.713Z,51.84
2022-11-28T15:39:13.913Z,51.96
2022-11-28T15:41:49.043Z,52.25
2022-11-28T15:44:21.016Z,52.33
2022-11-28T15:46:54.631Z,52.36
2022-11-28T15:49:30.438Z,52.62
2022-11-28T15:52:06.064Z,52.72
2022-11-28T15:54:42.077Z,52.76
2022-11-28T15:57:23.451Z,53.11
2022-11-28T15:59:56.627Z,53.16
2022-11-28T16:02:34.961Z,53.24
2022-11-28T16:05:11.272Z,53.42
2022-11-28T16:07:46.049Z,53.45
2022-11-28T16:10:25.024Z,53.70
2022-11-28T16:13:03.593Z,53.75
2022-11-28T16:15:35.853Z,53.81
2022-11-28T16:18:14.532Z,53.93
2022-11-28T16:20:50.348Z,54.10
2022-11-28T16:23:28.446Z,54.37
2022-11-28T16:26:05.036Z,54.36
2022-11-28T16:28:40.760Z,54.38
2022-11-28T16:31:24.307Z,54.26
2022-11-28T16:33:59.667Z,54.57
2022-11-28T16:36:37.180Z,54.46
2022-11-28T16:39:16.259Z,54.73
2022-11-28T16:41:54.942Z,54.69
2022-11-28T16:44:31.285Z,54.85
2022-11-28T16:47:03.640Z,55.04
2022-11-28T16:49:38.280Z,55.06
2022-11-28T16:52:47.006Z,55.05
2022-11-28T16:55:46.319Z,55.15
2022-11-28T16:58:25.464Z,55.26
2022-11-28T17:01:07.022Z,55.11
2022-11-28T17:03:58.083Z,55.20
2022-11-28T17:06:36.952Z,55.26
2022-11-28T17:09:11.100Z,55.19
2022-11-28T17:11:48.710Z,55.22
2022-11-28T17:14:23.509Z,55.11
2022-11-28T17:17:00.656Z,55.23
2022-11-28T17:19:34.808Z,55.31
2022-11-28T17:22:09.612Z,55.28
2022-11-28T17:24:42.484Z,55.24
2022-11-28T17:27:17.322Z,55.16
2022-11-28T17:29:53.218Z,55.17
2022-11-28T17:32:29.155Z,55.27
2022-11-28T17:35:04.191Z,55.31
2022-11-28T17:37:36.473Z,55.34
2022-11-28T17:40:32.009Z,55.35
2022-11-28T17:43:09.609Z,55.34
2022-11-28T17:45:45.208Z,55.24
2022-11-28T17:48:18.631Z,55.37
2022-11-28T17:50:53.109Z,55.39
2022-11-28T17:53:26.407Z,55.36
2022-11-28T17:56:00.692Z,55.37
2022-11-28T17:58:37.041Z,55.30
2022-11-28T18:01:16.510Z,55.44
2022-11-28T18:03:49.833Z,55.64
2022-11-28T18:06:23.950Z,55.60
2022-11-28T18:08:59.175Z,55.53
2022-11-28T18:11:36.810Z,55.76
2022-11-28T18:14:10.453Z,55.69
2022-11-28T18:16:44.985Z,55.84
2022-11-28T18:19:19.599Z,55.85
2022-11-28T18:21:54.837Z,55.78
2022-11-28T18:24:28.291Z,55.84
2022-11-28T18:27:04.984Z,55.80
2022-11-28T18:29:37.852Z,55.80
2022-11-28T18:32:09.676Z,55.79
2022-11-28T18:34:42.855Z,55.77
2022-11-28T18:37:16.893Z,55.76
2022-11-28T18:39:49.458Z,55.66
2022-11-28T18:42:22.192Z,55.74
2022-11-28T18:44:55.818Z,55.79
2022-11-28T18:47:29.383Z,55.76
2022-11-28T18:50:06.499Z,55.88
2022-11-28T18:52:41.699Z,55.72
2022-11-28T18:55:16.641Z,55.74
2022-11-28T18:57:48.535Z,55.70
2022-11-28T19:00:24.053Z,55.61
2022-11-28T19:02:57.224Z,55.81
2022-11-28T19:05:38.992Z,55.76
2022-11-28T19:08:13.735Z,55.96
2022-11-28T19:10:46.501Z,55.96
2022-11-28T19:13:21.269Z,55.71
2022-11-28T19:15:56.513Z,55.78
2022-11-28T19:18:29.625Z,55.96
2022-11-28T19:21:02.029Z,55.94
2022-11-28T19:23:35.341Z,56.01
2022-11-28T19:26:10.093Z,56.04
2022-11-28T19:28:44.427Z,55.99
2022-11-28T19:31:23.225Z,55.90
2022-11-28T19:34:01.915Z,55.89
2022-11-28T19:36:35.927Z,55.84
2022-11-28T19:39:11.411Z,56.07
2022-11-28T19:41:44.871Z,56.09
2022-11-28T19:44:19.657Z,56.17
2022-11-28T19:46:53.549Z,56.05
2022-11-28T19:49:27.716Z,55.98
2022-11-28T19:52:03.090Z,56.00
2022-11-28T19:54:37.776Z,56.09
2022-11-28T19:57:11.688Z,56.16
2022-11-28T19:59:44.883Z,56.19
2022-11-28T20:02:21.652Z,56.16
2022-11-28T20:04:56.145Z,56.25
2022-11-28T20:07:30.857Z,56.32
2022-11-28T20:10:03.848Z,56.31
2022-11-28T20:12:37.157Z,56.46
2022-11-28T20:15:16.702Z,56.43
2022-11-28T20:17:52.149Z,56.49
2022-11-28T20:20:25.477Z,56.50
2022-11-28T20:22:59.214Z,56.54
2022-11-28T20:25:35.248Z,56.52
2022-11-28T20:28:08.026Z,56.48
2022-11-28T20:30:40.772Z,56.55
2022-11-28T20:33:14.985Z,56.42
2022-11-28T20:35:49.047Z,56.41
2022-11-28T20:38:21.843Z,56.46
2022-11-28T20:40:57.303Z,56.49
2022-11-28T20:43:31.799Z,56.47
2022-11-28T20:46:11.679Z,56.47
2022-11-28T20:48:44.411Z,56.60
2022-11-28T20:51:18.216Z,56.56
2022-11-28T20:53:52.019Z,56.73
2022-11-28T20:56:26.760Z,56.60
2022-11-28T20:59:00.976Z,56.69
2022-11-28T21:01:37.531Z,56.80
2022-11-28T21:04:12.354Z,56.75
2022-11-28T21:06:49.252Z,56.73
2022-11-28T21:09:21.789Z,56.67
2022-11-28T21:11:58.649Z,56.64
2022-11-28T21:14:32.296Z,56.74
2022-11-28T21:17:08.637Z,56.73
2022-11-28T21:19:41.782Z,56.67
2022-11-28T21:22:14.354Z,56.85
2022-11-28T21:24:49.395Z,57.01
2022-11-28T21:27:22.948Z,56.84
2022-11-28T21:29:55.259Z,56.83
2022-11-28T21:32:28.425Z,56.79
2022-11-28T21:35:04.419Z,56.74
2022-11-28T21:37:38.980Z,56.80
2022-11-28T21:40:15.126Z,56.80
2022-11-28T21:42:49.432Z,56.93
2022-11-28T21:45:25.126Z,57.03
2022-11-28T21:48:00.550Z,57.05
2022-11-28T21:50:32.644Z,57.03
2022-11-28T21:53:06.232Z,57.03
2022-11-28T21:55:41.673Z,57.13
2022-11-28T21:58:14.172Z,57.16
2022-11-28T22:00:53.477Z,57.28
2022-11-28T22:03:28.858Z,57.25
2022-11-28T22:06:04.488Z,57.32
2022-11-28T22:08:37.223Z,57.28
2022-11-28T22:11:13.995Z,57.31
2022-11-28T22:13:49.019Z,57.21
2022-11-28T22:16:23.423Z,57.37
2022-11-28T22:18:57.458Z,57.25
2022-11-28T22:24:22.906Z,57.28
2022-11-28T22:26:57.428Z,57.40
2022-11-28T22:29:31.249Z,57.41
2022-11-28T22:32:03.894Z,57.38
2022-11-28T22:34:42.458Z,57.23
2022-11-28T22:37:15.370Z,57.38
2022-11-28T22:39:48.827Z,57.44
2022-11-28T22:42:20.871Z,57.32
2022-11-28T22:44:54.842Z,57.28
2022-11-28T22:47:30.126Z,57.24
2022-11-28T22:50:02.839Z,57.32
2022-11-28T22:52:34.867Z,57.19
2022-11-28T22:55:09.518Z,57.02
2022-11-28T22:57:42.933Z,57.13
2022-11-28T23:00:20.100Z,57.25
2022-11-28T23:02:52.618Z,57.12
2022-11-28T23:05:25.512Z,57.04
2022-11-28T23:07:58.847Z,57.10
2022-11-28T23:10:33.494Z,57.10
2022-11-28T23:13:08.922Z,57.10
2022-11-28T23:15:47.241Z,57.19
2022-11-28T23:18:24.697Z,57.27
2022-11-28T23:21:00.006Z,57.25
2022-11-28T23:23:35.296Z,57.24
2022-11-28T23:26:12.299Z,57.23
2022-11-28T23:28:45.142Z,57.27
2022-11-28T23:31:21.166Z,57.38
2022-11-28T23:33:54.418Z,57.34
2022-11-28T23:36:29.534Z,57.39
2022-11-28T23:39:03.105Z,57.33
2022-11-28T23:41:36.222Z,57.32
2022-11-28T23:44:10.421Z,57.17
2022-11-28T23:46:45.007Z,57.26
2022-11-28T23:49:17.991Z,57.16
2022-11-28T23:51:53.658Z,57.19
2022-11-28T23:54:27.136Z,57.17
2022-11-28T23:56:59.812Z,57.18
2022-11-28T23:59:35.755Z,57.27
